createdAt,value
2017-11-18T00:01:26.503Z,81.70
2017-11-18T00:03:54.786Z,80.50
2017-11-18T00:06:22.959Z,79.90
2017-11-18T00:08:51.159Z,78.70
2017-11-18T00:11:19.591Z,78.50
2017-11-18T00:13:47.874Z,77.40
2017-11-18T00:16:16.031Z,77.10
2017-11-18T00:18:45.116Z,76.30
2017-11-18T00:21:13.884Z,75.60
2017-11-18T00:23:45.511Z,76.10
2017-11-18T00:26:19.155Z,76.90
2017-11-18T00:28:47.388Z,77.10
2017-11-18T00:31:15.646Z,76.70
2017-11-18T00:33:43.924Z,77.20
2017-11-18T00:36:12.104Z,75.70
2017-11-18T00:38:40.410Z,74.70
2017-11-18T00:41:08.568Z,76.10
2017-11-18T00:43:37.003Z,76.30
2017-11-18T00:46:05.403Z,76.60
2017-11-18T00:48:33.559Z,75.00
2017-11-18T00:51:02.503Z,76.40
2017-11-18T00:53:30.828Z,76.40
2017-11-18T00:55:58.980Z,78.30
2017-11-18T00:58:27.154Z,80.20
2017-11-18T01:00:57.017Z,80.60
2017-11-18T01:03:25.268Z,79.10
2017-11-18T01:05:53.655Z,79.90
2017-11-18T01:08:22.580Z,79.30
2017-11-18T01:10:51.557Z,79.20
2017-11-18T01:13:20.037Z,79.20
2017-11-18T01:15:49.009Z,81.10
2017-11-18T01:18:17.936Z,83.20
2017-11-18T01:20:46.093Z,83.30
2017-11-18T01:23:14.369Z,82.70
2017-11-18T01:25:42.543Z,83.10
2017-11-18T01:28:10.718Z,81.10
2017-11-18T01:30:38.897Z,80.20
2017-11-18T01:33:09.576Z,79.20
2017-11-18T01:35:37.730Z,79.70
2017-11-18T01:38:05.895Z,82.60
2017-11-18T01:40:34.053Z,83.30
2017-11-18T01:43:03.818Z,83.30
2017-11-18T01:45:32.602Z,81.80
2017-11-18T01:48:00.771Z,80.30
2017-11-18T01:50:28.922Z,80.70
2017-11-18T01:52:57.401Z,80.70
2017-11-18T01:55:25.568Z,77.20
2017-11-18T01:57:54.279Z,77.40
2017-11-18T02:00:23.459Z,79.00
2017-11-18T02:02:51.717Z,79.70
2017-11-18T02:05:19.876Z,79.00
2017-11-18T02:07:48.040Z,79.20
2017-11-18T02:10:17.014Z,79.00
2017-11-18T02:12:46.045Z,78.20
2017-11-18T02:15:14.196Z,78.10
2017-11-18T02:17:42.356Z,78.00
2017-11-18T02:20:10.520Z,77.50
2017-11-18T02:22:38.678Z,77.50
2017-11-18T02:25:06.855Z,78.70
2017-11-18T02:27:35.039Z,78.10
2017-11-18T02:30:03.203Z,78.60
2017-11-18T02:32:32.161Z,81.40
2017-11-18T02:35:00.327Z,81.40
2017-11-18T02:37:28.491Z,80.70
2017-11-18T02:39:56.683Z,79.90
2017-11-18T02:42:24.846Z,80.20
2017-11-18T02:44:53.007Z,78.80
2017-11-18T02:47:22.105Z,79.30
2017-11-18T02:49:51.018Z,80.70
2017-11-18T02:52:20.077Z,80.70
2017-11-18T02:54:48.237Z,80.00
2017-11-18T02:57:18.720Z,80.10
2017-11-18T02:59:46.888Z,79.50
2017-11-18T03:02:15.640Z,78.50
2017-11-18T03:04:43.837Z,77.80
2017-11-18T03:07:12.276Z,77.90
2017-11-18T03:09:40.435Z,79.80
2017-11-18T03:12:08.626Z,80.60
2017-11-18T03:14:36.843Z,81.40
2017-11-18T03:17:05.005Z,81.70
2017-11-18T03:19:33.936Z,82.30
2017-11-18T03:22:02.108Z,82.20
2017-11-18T03:24:30.384Z,83.30
2017-11-18T03:26:58.534Z,83.90
2017-11-18T03:29:26.697Z,84.50
2017-11-18T03:31:54.847Z,85.10
2017-11-18T03:34:23.952Z,85.60
2017-11-18T03:36:52.895Z,83.10
2017-11-18T03:39:21.039Z,81.30
2017-11-18T03:41:49.324Z,83.60
2017-11-18T03:44:24.831Z,83.50
2017-11-18T03:46:53.030Z,83.30
2017-11-18T03:49:21.187Z,82.80
2017-11-18T03:51:49.342Z,83.90
2017-11-18T03:54:19.558Z,81.90
2017-11-18T03:56:47.718Z,82.70
2017-11-18T03:59:15.876Z,82.90
2017-11-18T04:01:44.034Z,83.10
2017-11-18T04:04:12.205Z,81.70
2017-11-18T04:06:40.354Z,79.90
2017-11-18T04:09:08.574Z,80.40
2017-11-18T04:11:36.729Z,81.00
2017-11-18T04:14:05.717Z,81.00
2017-11-18T04:16:33.875Z,83.10
2017-11-18T04:19:02.033Z,84.60
2017-11-18T04:21:30.200Z,83.10
2017-11-18T04:24:02.520Z,83.10
2017-11-18T04:26:31.815Z,83.40
2017-11-18T04:29:00.780Z,82.80
2017-11-18T04:31:29.730Z,85.70
2017-11-18T04:34:01.753Z,85.70
2017-11-18T04:36:29.902Z,86.00
2017-11-18T04:38:58.123Z,86.00
2017-11-18T04:41:26.282Z,84.00
2017-11-18T04:43:55.288Z,84.30
2017-11-18T04:46:23.455Z,84.30
2017-11-18T04:48:52.386Z,82.40
2017-11-18T04:51:20.548Z,82.40
2017-11-18T04:53:48.789Z,83.20
2017-11-18T04:56:17.056Z,83.40
2017-11-18T04:58:45.973Z,82.70
2017-11-18T05:01:14.112Z,82.70
2017-11-18T05:03:43.172Z,84.10
2017-11-18T05:06:11.330Z,84.00
2017-11-18T05:08:39.503Z,84.70
2017-11-18T05:11:07.666Z,83.80
2017-11-18T05:13:35.879Z,84.10
2017-11-18T05:16:04.047Z,83.80
2017-11-18T05:18:32.222Z,82.30
2017-11-18T05:21:00.391Z,83.70
2017-11-18T05:23:29.569Z,82.20
2017-11-18T05:25:57.727Z,80.60
2017-11-18T05:28:25.875Z,81.50
2017-11-18T05:30:54.044Z,82.20
2017-11-18T05:33:23.046Z,84.10
2017-11-18T05:35:51.212Z,84.10
2017-11-18T05:38:20.143Z,84.60
2017-11-18T05:40:49.067Z,81.80
2017-11-18T05:43:20.880Z,81.80
2017-11-18T05:45:49.054Z,81.70
2017-11-18T05:48:17.227Z,80.70
2017-11-18T05:50:46.447Z,81.00
2017-11-18T05:53:15.614Z,82.80
2017-11-18T05:55:43.807Z,82.60
2017-11-18T05:58:12.017Z,84.10
2017-11-18T06:00:40.169Z,83.20
2017-11-18T06:03:08.325Z,80.60
2017-11-18T06:05:36.486Z,82.20
2017-11-18T06:08:05.112Z,82.80
2017-11-18T06:10:33.277Z,83.60
2017-11-18T06:13:05.556Z,83.30
2017-11-18T06:15:33.727Z,80.30
2017-11-18T06:18:02.808Z,80.30
2017-11-18T06:20:31.730Z,80.10
2017-11-18T06:22:59.915Z,80.10
2017-11-18T06:25:28.079Z,80.00
2017-11-18T06:27:56.239Z,79.20
2017-11-18T06:30:25.153Z,80.10
2017-11-18T06:32:53.371Z,80.70
2017-11-18T06:35:21.527Z,80.70
2017-11-18T06:37:50.527Z,80.30
2017-11-18T06:40:18.691Z,80.30
2017-11-18T06:42:47.706Z,81.50
2017-11-18T06:45:15.864Z,81.50
2017-11-18T06:47:44.780Z,80.10
2017-11-18T06:50:12.930Z,80.10
2017-11-18T06:52:44.901Z,80.40
2017-11-18T06:55:13.856Z,79.40
2017-11-18T06:57:42.015Z,79.40
2017-11-18T07:00:10.185Z,80.00
2017-11-18T07:02:38.337Z,78.00
2017-11-18T07:05:06.515Z,78.20
2017-11-18T07:07:34.869Z,78.30
2017-11-18T07:10:03.848Z,77.60
2017-11-18T07:12:32.005Z,77.60
2017-11-18T07:15:00.180Z,76.90
2017-11-18T07:17:28.342Z,75.40
2017-11-18T07:19:56.492Z,75.60
2017-11-18T07:22:24.661Z,74.50
2017-11-18T07:24:52.827Z,76.60
2017-11-18T07:27:20.982Z,76.80
2017-11-18T07:29:49.136Z,77.70
2017-11-18T07:32:18.897Z,78.20
2017-11-18T07:34:47.815Z,80.00
2017-11-18T07:37:16.285Z,80.10
2017-11-18T07:39:44.634Z,79.30
2017-11-18T07:42:12.899Z,78.80
2017-11-18T07:44:42.701Z,78.00
2017-11-18T07:47:12.226Z,75.70
2017-11-18T07:49:40.381Z,75.70
2017-11-18T07:52:08.593Z,76.00
2017-11-18T07:54:36.862Z,76.90
2017-11-18T07:57:05.022Z,77.10
2017-11-18T07:59:33.213Z,76.60
2017-11-18T08:02:01.378Z,76.60
2017-11-18T08:04:29.869Z,75.30
2017-11-18T08:07:01.259Z,74.20
2017-11-18T08:09:29.431Z,74.20
2017-11-18T08:11:57.666Z,75.00
2017-11-18T08:14:25.834Z,74.70
2017-11-18T08:16:54.849Z,72.10
2017-11-18T08:19:23.806Z,71.40
2017-11-18T08:21:51.964Z,71.80
2017-11-18T08:24:20.983Z,69.70
2017-11-18T08:26:49.149Z,69.70
2017-11-18T08:29:17.323Z,72.40
2017-11-18T08:31:45.476Z,71.70
2017-11-18T08:34:14.514Z,71.90
2017-11-18T08:36:42.666Z,72.50
2017-11-18T08:39:10.893Z,68.80
2017-11-18T08:41:39.049Z,70.00
2017-11-18T08:44:07.202Z,72.70
2017-11-18T08:46:35.344Z,73.20
2017-11-18T08:49:03.487Z,70.30
2017-11-18T08:51:31.659Z,71.50
2017-11-18T08:53:59.893Z,68.80
2017-11-18T08:56:28.047Z,68.30
2017-11-18T08:58:56.256Z,66.80
2017-11-18T09:01:24.476Z,70.90
2017-11-18T09:03:52.648Z,71.40
2017-11-18T09:06:20.820Z,71.30
2017-11-18T09:08:48.986Z,69.30
2017-11-18T09:11:17.153Z,66.20
2017-11-18T09:13:46.292Z,66.60
2017-11-18T09:16:14.469Z,67.40
2017-11-18T09:18:42.656Z,68.40
2017-11-18T09:21:10.810Z,63.70
2017-11-18T09:23:39.813Z,61.40
2017-11-18T09:26:07.963Z,61.40
2017-11-18T09:28:36.123Z,64.00
2017-11-18T09:31:04.289Z,66.10
2017-11-18T09:33:33.332Z,66.70
2017-11-18T09:36:01.500Z,68.20
2017-11-18T09:38:30.514Z,70.10
2017-11-18T09:40:58.685Z,72.60
2017-11-18T09:43:26.844Z,74.50
2017-11-18T09:45:54.984Z,75.60
2017-11-18T09:48:23.148Z,75.70
2017-11-18T09:50:51.315Z,69.80
2017-11-18T09:53:19.543Z,69.30
2017-11-18T09:55:47.709Z,69.50
2017-11-18T09:58:16.619Z,69.90
2017-11-18T10:00:44.806Z,69.90
2017-11-18T10:03:13.043Z,71.20
2017-11-18T10:05:41.189Z,69.40
2017-11-18T10:08:09.448Z,67.30
2017-11-18T10:10:37.620Z,62.80
2017-11-18T10:13:05.795Z,65.40
2017-11-18T10:15:33.954Z,64.20
2017-11-18T10:18:02.135Z,64.40
2017-11-18T10:20:31.426Z,63.30
2017-11-18T10:22:59.655Z,62.10
2017-11-18T10:25:27.822Z,62.30
2017-11-18T10:27:56.668Z,62.30
2017-11-18T10:30:25.071Z,58.80
2017-11-18T10:32:53.974Z,60.00
2017-11-18T10:35:23.007Z,58.60
2017-11-18T10:37:51.409Z,61.80
2017-11-18T10:40:19.815Z,61.80
2017-11-18T10:42:53.731Z,61.60
2017-11-18T10:45:21.969Z,64.70
2017-11-18T10:47:50.175Z,66.10
2017-11-18T10:50:18.375Z,66.90
2017-11-18T10:52:47.384Z,61.90
2017-11-18T10:55:15.526Z,61.90
2017-11-18T10:57:43.705Z,65.40
2017-11-18T11:00:13.962Z,61.90
2017-11-18T11:02:44.199Z,63.20
2017-11-18T11:05:12.356Z,60.60
2017-11-18T11:07:40.504Z,61.20
2017-11-18T11:10:08.655Z,60.90
2017-11-18T11:12:37.616Z,60.50
2017-11-18T11:15:05.789Z,62.60
2017-11-18T11:17:34.165Z,60.70
2017-11-18T11:20:02.317Z,62.90
2017-11-18T11:22:30.501Z,63.40
2017-11-18T11:24:59.049Z,62.90
2017-11-18T11:27:27.213Z,59.70
2017-11-18T11:29:55.659Z,60.60
2017-11-18T11:32:25.152Z,60.20
2017-11-18T11:34:53.312Z,61.40
2017-11-18T11:37:22.224Z,57.20
2017-11-18T11:39:50.413Z,57.00
2017-11-18T11:42:18.641Z,58.10
2017-11-18T11:44:46.784Z,59.50
2017-11-18T11:47:16.240Z,56.90
2017-11-18T11:49:44.387Z,56.90
2017-11-18T11:52:13.314Z,55.00
2017-11-18T11:54:41.499Z,54.20
2017-11-18T11:57:09.676Z,53.50
2017-11-18T11:59:37.834Z,52.60
2017-11-18T12:02:06.007Z,53.00
2017-11-18T12:04:41.198Z,51.10
2017-11-18T12:07:09.375Z,53.80
2017-11-18T12:09:38.515Z,51.80
2017-11-18T12:12:06.675Z,51.50
2017-11-18T12:14:34.897Z,50.90
2017-11-18T12:17:03.052Z,49.10
2017-11-18T12:19:31.201Z,49.30
2017-11-18T12:22:00.816Z,44.60
2017-11-18T12:24:28.994Z,44.50
2017-11-18T12:26:57.259Z,44.50
2017-11-18T12:29:25.516Z,46.10
2017-11-18T12:31:54.439Z,44.50
2017-11-18T12:34:22.701Z,44.50
2017-11-18T12:36:52.731Z,45.70
2017-11-18T12:39:20.895Z,42.30
2017-11-18T12:41:49.029Z,44.80
2017-11-18T12:44:17.243Z,43.90
2017-11-18T12:46:45.401Z,43.20
2017-11-18T12:49:14.332Z,41.90
2017-11-18T12:51:42.499Z,41.80
2017-11-18T12:54:10.750Z,42.60
2017-11-18T12:56:38.930Z,42.30
2017-11-18T12:59:07.131Z,42.60
2017-11-18T13:01:35.273Z,45.40
2017-11-18T13:04:04.471Z,43.30
2017-11-18T13:06:32.627Z,41.00
2017-11-18T13:09:00.768Z,42.10
2017-11-18T13:11:28.925Z,40.20
2017-11-18T13:13:57.156Z,40.00
2017-11-18T13:16:25.315Z,41.40
2017-11-18T13:18:53.473Z,41.50
2017-11-18T13:21:21.613Z,42.70
2017-11-18T13:23:49.861Z,40.80
2017-11-18T13:26:18.038Z,40.20
2017-11-18T13:28:46.200Z,40.80
2017-11-18T13:31:15.269Z,42.10
2017-11-18T13:33:44.395Z,42.40
2017-11-18T13:36:12.760Z,43.50
2017-11-18T13:38:42.239Z,41.30
2017-11-18T13:41:10.400Z,41.40
2017-11-18T13:43:38.547Z,43.10
2017-11-18T13:46:06.695Z,41.80
2017-11-18T13:48:35.623Z,41.00
2017-11-18T13:51:03.777Z,41.10
2017-11-18T13:53:32.054Z,40.50
2017-11-18T13:56:00.189Z,41.60
2017-11-18T13:58:28.408Z,39.70
2017-11-18T14:00:56.570Z,39.90
2017-11-18T14:03:24.729Z,40.40
2017-11-18T14:05:53.645Z,40.00
2017-11-18T14:08:21.790Z,40.00
2017-11-18T14:10:50.736Z,39.60
2017-11-18T14:13:18.868Z,39.50
2017-11-18T14:15:47.931Z,39.30
2017-11-18T14:18:16.088Z,40.40
2017-11-18T14:20:45.124Z,39.30
2017-11-18T14:23:13.410Z,41.30
2017-11-18T14:25:42.451Z,39.70
2017-11-18T14:28:11.543Z,39.80
2017-11-18T14:30:39.705Z,38.80
2017-11-18T14:33:07.984Z,40.70
2017-11-18T14:35:36.130Z,40.20
2017-11-18T14:38:04.280Z,40.20
2017-11-18T14:40:32.419Z,41.40
2017-11-18T14:43:00.699Z,40.50
2017-11-18T14:45:28.851Z,44.90
2017-11-18T14:47:56.992Z,40.10
2017-11-18T14:50:25.242Z,40.50
2017-11-18T14:52:53.386Z,40.30
2017-11-18T14:55:21.563Z,40.00
2017-11-18T14:57:49.781Z,41.20
2017-11-18T15:00:18.708Z,41.70
2017-11-18T15:02:46.869Z,41.60
2017-11-18T15:05:15.016Z,40.40
2017-11-18T15:07:43.966Z,42.50
2017-11-18T15:10:12.148Z,41.80
2017-11-18T15:12:40.645Z,42.00
2017-11-18T15:15:12.466Z,41.50
2017-11-18T15:17:46.623Z,41.50
2017-11-18T15:20:20.480Z,42.00
2017-11-18T15:22:52.417Z,43.30
2017-11-18T15:25:27.041Z,42.10
2017-11-18T15:28:01.490Z,43.50
2017-11-18T15:30:32.272Z,43.50
2017-11-18T15:33:16.180Z,42.90
2017-11-18T15:35:44.336Z,43.40
2017-11-18T15:38:33.303Z,44.70
2017-11-18T15:41:02.220Z,44.80
2017-11-18T15:43:32.116Z,45.20
2017-11-18T15:46:00.763Z,44.50
2017-11-18T15:48:48.355Z,42.00
2017-11-18T15:51:32.155Z,41.90
2017-11-18T15:54:06.031Z,43.60
2017-11-18T15:56:51.880Z,44.50
2017-11-18T15:59:20.036Z,43.20
2017-11-18T16:01:51.667Z,44.00
2017-11-18T16:04:23.426Z,44.30
2017-11-18T16:07:03.155Z,44.20
2017-11-18T16:09:31.319Z,44.20
2017-11-18T16:11:59.463Z,44.50
2017-11-18T16:14:30.980Z,44.70
2017-11-18T16:16:59.125Z,45.50
2017-11-18T16:19:28.274Z,44.90
2017-11-18T16:21:56.497Z,45.00
2017-11-18T16:24:24.797Z,44.90
2017-11-18T16:26:53.761Z,45.50
2017-11-18T16:29:22.080Z,45.50
2017-11-18T16:31:50.259Z,45.50
2017-11-18T16:34:22.193Z,45.50
2017-11-18T16:36:51.184Z,45.60
2017-11-18T16:39:20.486Z,45.50
2017-11-18T16:41:48.705Z,45.50
2017-11-18T16:44:16.981Z,45.60
2017-11-18T16:46:45.250Z,45.50
2017-11-18T16:49:13.414Z,46.40
2017-11-18T16:51:41.535Z,45.70
2017-11-18T16:54:09.750Z,46.00
2017-11-18T16:56:37.896Z,45.50
2017-11-18T16:59:06.048Z,44.30
2017-11-18T17:01:34.200Z,45.80
2017-11-18T17:04:02.457Z,45.40
2017-11-18T17:06:30.623Z,45.00
2017-11-18T17:08:58.776Z,45.00
2017-11-18T17:11:26.915Z,45.40
2017-11-18T17:13:55.169Z,45.20
2017-11-18T17:16:23.331Z,43.80
2017-11-18T17:18:52.260Z,45.40
2017-11-18T17:21:21.395Z,45.30
2017-11-18T17:23:50.599Z,46.10
2017-11-18T17:26:21.066Z,45.50
2017-11-18T17:28:49.250Z,45.50
2017-11-18T17:31:17.410Z,45.00
2017-11-18T17:33:46.232Z,45.60
2017-11-18T17:36:14.960Z,45.50
2017-11-18T17:38:43.108Z,45.50
2017-11-18T17:41:13.437Z,46.10
2017-11-18T17:43:43.151Z,45.50
2017-11-18T17:46:12.080Z,45.60
2017-11-18T17:48:40.280Z,45.60
2017-11-18T17:51:08.443Z,47.50
2017-11-18T17:53:36.849Z,46.20
2017-11-18T17:56:04.987Z,47.00
2017-11-18T17:58:33.170Z,45.50
2017-11-18T18:01:01.323Z,47.70
2017-11-18T18:03:33.903Z,45.80
2017-11-18T18:06:02.896Z,45.60
2017-11-18T18:08:31.053Z,45.60
2017-11-18T18:11:00.084Z,45.60
2017-11-18T18:13:28.315Z,45.90
2017-11-18T18:15:56.469Z,45.80
2017-11-18T18:18:24.621Z,45.70
2017-11-18T18:20:52.781Z,47.70
2017-11-18T18:23:21.038Z,48.40
2017-11-18T18:25:49.219Z,47.30
2017-11-18T18:28:17.436Z,47.00
2017-11-18T18:30:45.603Z,47.10
2017-11-18T18:33:14.755Z,46.10
2017-11-18T18:35:42.912Z,45.50
2017-11-18T18:38:11.060Z,46.20
2017-11-18T18:40:39.252Z,45.50
2017-11-18T18:43:13.883Z,46.90
2017-11-18T18:45:43.956Z,44.50
2017-11-18T18:48:12.159Z,45.00
2017-11-18T18:50:40.329Z,45.80
2017-11-18T18:53:08.538Z,45.30
2017-11-18T18:55:36.792Z,45.40
2017-11-18T18:58:05.258Z,46.10
2017-11-18T19:00:34.080Z,46.30
2017-11-18T19:03:05.745Z,45.10
2017-11-18T19:05:34.128Z,45.90
2017-11-18T19:08:02.272Z,45.10
2017-11-18T19:10:30.466Z,44.80
2017-11-18T19:13:00.384Z,45.60
2017-11-18T19:15:28.543Z,46.10
2017-11-18T19:17:57.455Z,45.40
2017-11-18T19:20:26.535Z,45.40
2017-11-18T19:22:56.661Z,46.30
2017-11-18T19:25:24.844Z,44.70
2017-11-18T19:27:52.988Z,44.80
2017-11-18T19:30:21.428Z,45.80
2017-11-18T19:32:52.008Z,45.20
2017-11-18T19:35:20.208Z,45.60
2017-11-18T19:37:48.407Z,46.30
2017-11-18T19:40:17.414Z,44.00
2017-11-18T19:42:46.602Z,43.90
2017-11-18T19:45:14.747Z,45.30
2017-11-18T19:47:43.047Z,44.20
2017-11-18T19:50:11.246Z,44.10
2017-11-18T19:52:43.143Z,43.40
2017-11-18T19:55:11.292Z,44.10
2017-11-18T19:57:40.303Z,44.10
2017-11-18T20:00:08.485Z,44.10
2017-11-18T20:02:36.646Z,44.70
2017-11-18T20:05:04.820Z,45.20
2017-11-18T20:07:33.767Z,46.00
2017-11-18T20:10:01.913Z,46.10
2017-11-18T20:12:30.078Z,46.00
2017-11-18T20:14:58.711Z,45.60
2017-11-18T20:17:27.986Z,45.50
2017-11-18T20:19:56.122Z,46.40
2017-11-18T20:22:24.364Z,45.50
2017-11-18T20:24:52.524Z,47.80
2017-11-18T20:27:21.205Z,46.70
2017-11-18T20:29:49.595Z,46.60
2017-11-18T20:32:17.770Z,46.70
2017-11-18T20:34:45.922Z,48.40
2017-11-18T20:37:14.082Z,46.20
2017-11-18T20:39:42.246Z,47.90
2017-11-18T20:42:10.425Z,49.00
2017-11-18T20:44:39.520Z,47.30
2017-11-18T20:47:07.668Z,46.20
2017-11-18T20:49:35.830Z,49.00
2017-11-18T20:52:04.754Z,46.30
2017-11-18T20:54:32.920Z,46.30
2017-11-18T20:57:01.089Z,46.50
2017-11-18T20:59:29.364Z,47.30
2017-11-18T21:01:57.635Z,48.70
2017-11-18T21:04:27.418Z,48.00
2017-11-18T21:06:55.569Z,48.00
2017-11-18T21:09:23.756Z,48.70
2017-11-18T21:11:51.923Z,50.10
2017-11-18T21:14:20.180Z,49.70
2017-11-18T21:16:48.384Z,50.20
2017-11-18T21:19:16.553Z,47.90
2017-11-18T21:21:44.730Z,50.10
2017-11-18T21:24:16.534Z,49.50
2017-11-18T21:26:45.736Z,50.20
2017-11-18T21:29:13.929Z,50.20
2017-11-18T21:31:42.552Z,50.20
2017-11-18T21:34:11.718Z,50.10
2017-11-18T21:36:39.955Z,49.30
2017-11-18T21:39:08.876Z,50.10
2017-11-18T21:41:37.052Z,50.20
2017-11-18T21:44:05.233Z,50.10
2017-11-18T21:46:33.395Z,50.10
2017-11-18T21:49:01.621Z,51.20
2017-11-18T21:51:30.568Z,52.10
2017-11-18T21:53:58.728Z,52.00
2017-11-18T21:56:26.903Z,50.80
2017-11-18T21:58:55.117Z,52.00
2017-11-18T22:01:23.294Z,50.90
2017-11-18T22:03:52.389Z,50.30
2017-11-18T22:06:20.541Z,51.80
2017-11-18T22:08:48.707Z,50.60
2017-11-18T22:11:16.867Z,52.00
2017-11-18T22:13:45.140Z,50.70
2017-11-18T22:16:13.344Z,50.20
2017-11-18T22:18:42.205Z,50.20
2017-11-18T22:21:10.382Z,51.20
2017-11-18T22:23:38.669Z,48.80
2017-11-18T22:26:07.467Z,50.00
2017-11-18T22:28:35.638Z,50.10
2017-11-18T22:31:03.808Z,50.60
2017-11-18T22:33:32.994Z,50.00
2017-11-18T22:36:02.111Z,49.30
2017-11-18T22:38:30.262Z,50.20
2017-11-18T22:40:58.428Z,50.30
2017-11-18T22:43:27.629Z,50.20
2017-11-18T22:45:55.779Z,50.70
2017-11-18T22:48:23.943Z,50.60
2017-11-18T22:50:52.094Z,51.80
2017-11-18T22:53:20.251Z,50.80
2017-11-18T22:55:48.502Z,50.90
2017-11-18T22:58:16.662Z,53.90
2017-11-18T23:00:45.736Z,53.00
2017-11-18T23:03:13.948Z,53.00
2017-11-18T23:05:42.231Z,53.60
2017-11-18T23:08:10.382Z,54.30
2017-11-18T23:10:39.304Z,55.90
2017-11-18T23:13:07.478Z,55.90
2017-11-18T23:15:35.662Z,57.30
2017-11-18T23:18:03.814Z,58.30
2017-11-18T23:20:32.036Z,58.80
2017-11-18T23:23:02.221Z,59.20
2017-11-18T23:25:31.042Z,60.60
2017-11-18T23:27:59.182Z,60.90
2017-11-18T23:30:27.374Z,61.20
2017-11-18T23:32:55.600Z,62.50
2017-11-18T23:35:24.563Z,61.70
2017-11-18T23:37:52.801Z,61.60
2017-11-18T23:40:20.955Z,64.50
2017-11-18T23:42:49.663Z,66.60
2017-11-18T23:45:18.487Z,66.80
2017-11-18T23:47:46.967Z,67.60
2017-11-18T23:50:15.172Z,68.00
2017-11-18T23:52:44.187Z,67.20
2017-11-18T23:55:12.370Z,67.20
2017-11-18T23:57:40.798Z,68.10
